createdAt,value
2023-03-01T00:00:06.017Z,102396.66
2023-03-01T00:02:32.837Z,102397.47
2023-03-01T00:04:59.177Z,102388.41
2023-03-01T00:07:25.506Z,102390.88
2023-03-01T00:09:51.836Z,102388.97
2023-03-01T00:12:18.427Z,102397.22
2023-03-01T00:14:45.878Z,102394.47
2023-03-01T00:17:12.476Z,102399.13
2023-03-01T00:19:38.808Z,102392.22
2023-03-01T00:22:05.241Z,102395.22
2023-03-01T00:24:31.671Z,102389.16
2023-03-01T00:26:58.102Z,102380.56
2023-03-01T00:29:25.864Z,102380.00
2023-03-01T00:31:52.265Z,102379.38
2023-03-01T00:34:19.035Z,102375.25
2023-03-01T00:36:45.465Z,102373.81
2023-03-01T00:39:15.515Z,102370.97
2023-03-01T00:41:43.144Z,102371.72
2023-03-01T00:44:09.989Z,102367.56
2023-03-01T00:46:36.467Z,102363.41
2023-03-01T00:49:05.374Z,102359.47
2023-03-01T00:51:32.766Z,102357.47
2023-03-01T00:54:02.243Z,102351.66
2023-03-01T00:56:30.156Z,102356.56
2023-03-01T00:58:57.162Z,102354.56
2023-03-01T01:01:28.281Z,102358.66
2023-03-01T01:03:58.067Z,102356.38
2023-03-01T01:06:27.513Z,102352.25
2023-03-01T01:08:55.575Z,102352.47
2023-03-01T01:11:24.199Z,102347.50
2023-03-01T01:13:51.082Z,102343.91
2023-03-01T01:16:21.733Z,102341.66
2023-03-01T01:18:48.480Z,102340.22
2023-03-01T01:21:19.012Z,102347.88
2023-03-01T01:23:46.236Z,102354.47
2023-03-01T01:26:15.642Z,102352.19
2023-03-01T01:28:43.243Z,102346.97
2023-03-01T01:31:09.672Z,102350.78
2023-03-01T01:33:36.154Z,102345.53
2023-03-01T01:36:02.836Z,102343.03
2023-03-01T01:38:29.296Z,102341.59
2023-03-01T01:40:55.967Z,102350.09
2023-03-01T01:43:31.793Z,102347.00
2023-03-01T01:46:03.068Z,102338.75
2023-03-01T01:48:41.489Z,102336.28
2023-03-01T01:51:12.717Z,102325.53
2023-03-01T01:53:41.021Z,102318.41
2023-03-01T01:56:09.383Z,102321.97
2023-03-01T01:58:36.824Z,102333.53
2023-03-01T02:01:04.320Z,102322.81
2023-03-01T02:03:34.646Z,102320.28
2023-03-01T02:06:10.306Z,102310.66
2023-03-01T02:08:39.521Z,102313.88
2023-03-01T02:11:06.543Z,102312.22
2023-03-01T02:13:34.610Z,102303.41
2023-03-01T02:16:04.884Z,102306.38
2023-03-01T02:18:31.489Z,102309.38
2023-03-01T02:21:32.919Z,102312.38
2023-03-01T02:24:12.071Z,102298.28
2023-03-01T02:26:46.313Z,102298.78
2023-03-01T02:29:12.813Z,102297.38
2023-03-01T02:31:46.063Z,102301.44
2023-03-01T02:34:17.918Z,102310.16
2023-03-01T02:37:09.318Z,102308.16
2023-03-01T02:39:43.012Z,102308.72
2023-03-01T02:42:13.770Z,102311.72
2023-03-01T02:44:40.154Z,102310.91
2023-03-01T02:47:07.224Z,102314.47
2023-03-01T02:49:37.711Z,102312.81
2023-03-01T02:52:22.148Z,102311.38
2023-03-01T02:54:57.478Z,102311.63
2023-03-01T02:57:25.931Z,102305.88
2023-03-01T02:59:53.898Z,102299.00
2023-03-01T03:02:36.902Z,102296.47
2023-03-01T03:05:14.462Z,102295.66
2023-03-01T03:07:42.810Z,102284.94
2023-03-01T03:10:12.121Z,102293.16
2023-03-01T03:12:39.250Z,102293.16
2023-03-01T03:15:09.759Z,102289.22
2023-03-01T03:17:38.370Z,102295.19
2023-03-01T03:20:12.560Z,102291.88
2023-03-01T03:22:42.104Z,102290.44
2023-03-01T03:25:12.661Z,102290.94
2023-03-01T03:27:40.406Z,102285.69
2023-03-01T03:30:13.221Z,102284.28
2023-03-01T03:32:41.516Z,102272.47
2023-03-01T03:35:10.453Z,102268.06
2023-03-01T03:37:57.728Z,102271.63
2023-03-01T03:40:24.235Z,102270.81
2023-03-01T03:42:50.954Z,102269.63
2023-03-01T03:45:18.326Z,102255.31
2023-03-01T03:47:45.690Z,102258.06
2023-03-01T03:50:14.890Z,102251.16
2023-03-01T03:52:41.568Z,102244.84
2023-03-01T03:55:10.567Z,102248.63
2023-03-01T03:57:39.369Z,102239.84
2023-03-01T04:00:13.779Z,102243.66
2023-03-01T04:02:41.952Z,102251.53
2023-03-01T04:05:10.212Z,102250.69
2023-03-01T04:07:37.435Z,102254.53
2023-03-01T04:10:09.126Z,102259.41
2023-03-01T04:12:35.836Z,102262.41
2023-03-01T04:15:13.485Z,102270.63
2023-03-01T04:17:44.872Z,102266.44
2023-03-01T04:20:25.663Z,102269.44
2023-03-01T04:23:17.342Z,102267.19
2023-03-01T04:26:04.294Z,102268.50
2023-03-01T04:28:40.879Z,102265.75
2023-03-01T04:31:18.503Z,102268.50
2023-03-01T04:33:53.484Z,102266.00
2023-03-01T04:36:22.916Z,102265.41
2023-03-01T04:38:49.422Z,102258.50
2023-03-01T04:41:18.804Z,102265.91
2023-03-01T04:43:45.617Z,102263.38
2023-03-01T04:46:15.953Z,102255.66
2023-03-01T04:48:45.243Z,102258.41
2023-03-01T04:51:14.614Z,102254.22
2023-03-01T04:53:42.508Z,102252.31
2023-03-01T04:56:09.217Z,102258.88
2023-03-01T04:58:35.732Z,102258.03
2023-03-01T05:01:02.335Z,102253.63
2023-03-01T05:03:29.786Z,102265.69
2023-03-01T05:06:00.888Z,102260.41
2023-03-01T05:08:28.147Z,102254.09
2023-03-01T05:10:55.380Z,102266.16
2023-03-01T05:13:22.734Z,102256.25
2023-03-01T05:16:00.839Z,102260.31
2023-03-01T05:18:28.158Z,102256.25
2023-03-01T05:21:08.003Z,102252.91
2023-03-01T05:23:41.239Z,102257.56
2023-03-01T05:26:22.433Z,102250.69
2023-03-01T05:28:57.975Z,102251.97
2023-03-01T05:31:25.835Z,102246.75
2023-03-01T05:33:56.565Z,102246.13
2023-03-01T05:36:24.653Z,102245.31
2023-03-01T05:38:51.960Z,102244.22
2023-03-01T05:41:19.214Z,102234.34
2023-03-01T05:43:47.834Z,102241.72
2023-03-01T05:46:16.573Z,102244.72
2023-03-01T05:48:43.446Z,102244.97
2023-03-01T05:51:14.099Z,102248.75
2023-03-01T05:53:42.368Z,102246.28
2023-03-01T05:56:09.382Z,102243.53
2023-03-01T05:58:36.145Z,102248.19
2023-03-01T06:01:02.496Z,102248.19
2023-03-01T06:03:30.797Z,102233.03
2023-03-01T06:05:59.094Z,102242.69
2023-03-01T06:08:31.597Z,102243.53
2023-03-01T06:10:58.579Z,102236.59
2023-03-01T06:16:16.001Z,102247.56
2023-03-01T06:18:42.548Z,102253.91
2023-03-01T06:21:10.007Z,102250.31
2023-03-01T06:23:36.589Z,102250.09
2023-03-01T06:26:06.986Z,102244.59
2023-03-01T06:28:33.382Z,102245.19
2023-03-01T06:31:00.045Z,102249.00
2023-03-01T06:33:27.755Z,102242.44
2023-03-01T06:35:57.769Z,102241.38
2023-03-01T06:38:25.968Z,102239.50
2023-03-01T06:40:55.361Z,102238.16
2023-03-01T06:43:22.358Z,102237.69
2023-03-01T06:45:48.864Z,102241.84
2023-03-01T06:48:15.260Z,102227.66
2023-03-01T06:50:41.840Z,102230.78
2023-03-01T06:53:08.620Z,102222.66
2023-03-01T06:55:35.080Z,102221.94
2023-03-01T06:58:02.938Z,102222.25
2023-03-01T07:00:29.897Z,102215.59
2023-03-01T07:02:59.801Z,102212.38
2023-03-01T07:05:26.201Z,102224.84
2023-03-01T07:07:54.734Z,102223.28
2023-03-01T07:10:21.330Z,102222.06
2023-03-01T07:12:47.789Z,102225.50
2023-03-01T07:15:16.186Z,102217.38
2023-03-01T07:17:42.833Z,102218.28
2023-03-01T07:20:10.045Z,102220.03
2023-03-01T07:22:36.425Z,102218.25
2023-03-01T07:25:02.879Z,102216.44
2023-03-01T07:27:29.289Z,102218.19
2023-03-01T07:29:55.663Z,102215.25
2023-03-01T07:32:22.685Z,102212.63
2023-03-01T07:34:49.349Z,102212.47
2023-03-01T07:37:15.746Z,102213.13
2023-03-01T07:39:42.454Z,102198.66
2023-03-01T07:42:09.818Z,102200.16
2023-03-01T07:44:36.511Z,102206.31
2023-03-01T07:47:05.012Z,102202.31
2023-03-01T07:49:32.182Z,102208.47
2023-03-01T07:51:58.612Z,102200.63
2023-03-01T07:54:25.433Z,102205.72
2023-03-01T07:56:52.016Z,102211.63
2023-03-01T07:59:18.764Z,102204.28
2023-03-01T08:01:45.359Z,102211.00
2023-03-01T08:04:11.879Z,102212.47
2023-03-01T08:06:38.275Z,102213.13
2023-03-01T08:09:04.738Z,102215.66
2023-03-01T08:11:31.392Z,102208.91
2023-03-01T08:13:59.207Z,102215.84
2023-03-01T08:16:26.281Z,102203.03
2023-03-01T08:18:52.721Z,102200.06
2023-03-01T08:21:19.717Z,102202.88
2023-03-01T08:23:46.501Z,102191.94
2023-03-01T08:26:20.136Z,102195.56
2023-03-01T08:28:47.989Z,102201.94
2023-03-01T08:31:22.207Z,102198.19
2023-03-01T08:33:57.428Z,102192.47
2023-03-01T08:36:26.620Z,102187.56
2023-03-01T08:38:55.137Z,102201.16
2023-03-01T08:41:22.058Z,102192.97
2023-03-01T08:43:50.986Z,102201.25
2023-03-01T08:46:17.722Z,102194.16
2023-03-01T08:48:44.173Z,102192.00
2023-03-01T08:51:14.179Z,102194.78
2023-03-01T08:53:42.716Z,102197.59
2023-03-01T08:56:13.043Z,102199.81
2023-03-01T08:58:42.519Z,102190.78
2023-03-01T09:01:10.612Z,102191.63
2023-03-01T09:03:38.766Z,102194.44
2023-03-01T09:06:08.613Z,102194.75
2023-03-01T09:08:37.040Z,102191.19
2023-03-01T09:11:06.922Z,102188.19
2023-03-01T09:13:33.946Z,102187.72
2023-03-01T09:16:02.437Z,102192.44
2023-03-01T09:18:29.059Z,102180.34
2023-03-01T09:21:03.378Z,102187.53
2023-03-01T09:23:29.967Z,102182.91
2023-03-01T09:25:56.670Z,102177.13
2023-03-01T09:28:30.001Z,102172.19
2023-03-01T09:33:55.757Z,102161.81
2023-03-01T09:36:26.451Z,102148.31
2023-03-01T09:38:54.120Z,102145.88
2023-03-01T09:41:45.376Z,102146.97
2023-03-01T09:44:19.976Z,102145.63
2023-03-01T09:46:47.197Z,102154.22
2023-03-01T09:49:20.480Z,102141.78
2023-03-01T09:51:56.739Z,102145.13
2023-03-01T09:54:23.438Z,102149.00
2023-03-01T09:57:14.322Z,102145.13
2023-03-01T09:59:59.489Z,102137.69
2023-03-01T10:02:42.659Z,102135.47
2023-03-01T10:05:30.245Z,102137.66
2023-03-01T10:08:19.255Z,102136.00
2023-03-01T10:10:48.365Z,102128.84
2023-03-01T10:13:25.108Z,102128.84
2023-03-01T10:15:56.135Z,102133.81
2023-03-01T10:18:34.748Z,102127.44
2023-03-01T10:21:04.359Z,102122.44
2023-03-01T10:23:36.777Z,102118.56
2023-03-01T10:26:31.278Z,102115.50
2023-03-01T10:29:08.767Z,102122.09
2023-03-01T10:31:44.091Z,102122.34
2023-03-01T10:34:19.429Z,102118.97
2023-03-01T10:36:50.609Z,102129.47
2023-03-01T10:39:23.137Z,102117.25
2023-03-01T10:42:03.128Z,102107.84
2023-03-01T10:44:44.946Z,102108.34
2023-03-01T10:47:26.391Z,102099.44
2023-03-01T10:50:09.678Z,102097.78
2023-03-01T10:52:38.755Z,102096.31
2023-03-01T10:55:28.061Z,102092.16
2023-03-01T10:58:21.088Z,102083.00
2023-03-01T11:00:54.530Z,102089.03
2023-03-01T11:03:24.713Z,102087.34
2023-03-01T11:05:58.148Z,102077.66
2023-03-01T11:08:43.481Z,102079.81
2023-03-01T11:11:33.249Z,102074.25
2023-03-01T11:14:23.654Z,102065.63
2023-03-01T11:17:13.809Z,102066.44
2023-03-01T11:19:40.322Z,102060.25
2023-03-01T11:22:18.952Z,102067.16
2023-03-01T11:24:57.250Z,102066.28
2023-03-01T11:27:33.877Z,102062.09
2023-03-01T11:30:15.278Z,102068.19
2023-03-01T11:32:56.341Z,102067.59
2023-03-01T11:35:26.384Z,102057.31
2023-03-01T11:38:17.889Z,102062.84
2023-03-01T11:41:17.718Z,102070.00
2023-03-01T11:44:02.419Z,102070.28
2023-03-01T11:47:15.713Z,102068.53
2023-03-01T11:50:03.177Z,102068.75
2023-03-01T11:52:56.048Z,102068.41
2023-03-01T11:55:54.557Z,102077.56
2023-03-01T11:58:58.058Z,102069.19
2023-03-01T12:01:42.177Z,102070.75
2023-03-01T12:04:46.160Z,102059.09
2023-03-01T12:07:37.102Z,102064.56
2023-03-01T12:10:22.975Z,102058.97
2023-03-01T12:13:13.270Z,102050.59
2023-03-01T12:16:25.921Z,102046.38
2023-03-01T12:19:07.195Z,102037.91
2023-03-01T12:21:42.082Z,102026.00
2023-03-01T12:24:41.275Z,102015.72
2023-03-01T12:27:20.711Z,102007.34
2023-03-01T12:29:53.256Z,101998.09
2023-03-01T12:32:45.434Z,102007.56
2023-03-01T12:35:33.909Z,101996.69
2023-03-01T12:38:09.128Z,102000.22
2023-03-01T12:40:47.708Z,101996.53
2023-03-01T12:43:34.162Z,101995.97
2023-03-01T12:46:22.130Z,101987.84
2023-03-01T12:49:11.776Z,101985.00
2023-03-01T12:51:40.398Z,101991.31
2023-03-01T12:54:16.024Z,101974.03
2023-03-01T12:56:43.762Z,101979.22
2023-03-01T12:59:10.058Z,101976.13
2023-03-01T13:01:46.841Z,101979.41
2023-03-01T13:04:20.472Z,101970.16
2023-03-01T13:07:01.090Z,101965.66
2023-03-01T13:09:36.474Z,101961.16
2023-03-01T13:12:08.056Z,101970.22
2023-03-01T13:14:38.145Z,101951.81
2023-03-01T13:17:04.653Z,101959.25
2023-03-01T13:19:33.422Z,101956.97
2023-03-01T13:22:00.415Z,101956.06
2023-03-01T13:24:43.387Z,101946.91
2023-03-01T13:27:12.417Z,101952.06
2023-03-01T13:29:46.118Z,101942.84
2023-03-01T13:32:43.135Z,101951.91
2023-03-01T13:35:17.952Z,101944.31
2023-03-01T13:37:45.491Z,101949.75
2023-03-01T13:40:19.517Z,101943.38
2023-03-01T13:43:05.184Z,101936.69
2023-03-01T13:45:40.522Z,101930.53
2023-03-01T13:48:16.080Z,101937.41
2023-03-01T13:50:52.533Z,101924.31
2023-03-01T13:53:22.276Z,101927.63
2023-03-01T13:55:57.005Z,101928.47
2023-03-01T13:58:28.129Z,101920.34
2023-03-01T14:01:21.054Z,101923.13
2023-03-01T14:03:47.678Z,101931.34
2023-03-01T14:06:20.874Z,101918.28
2023-03-01T14:09:15.559Z,101910.22
2023-03-01T14:12:14.383Z,101903.22
2023-03-01T14:14:51.094Z,101900.13
2023-03-01T14:17:42.888Z,101904.03
2023-03-01T14:20:18.133Z,101892.59
2023-03-01T14:22:45.817Z,101888.19
2023-03-01T14:25:31.015Z,101887.38
2023-03-01T14:28:05.438Z,101882.00
2023-03-01T14:30:39.407Z,101876.47
2023-03-01T14:33:18.789Z,101877.78
2023-03-01T14:35:54.924Z,101869.75
2023-03-01T14:38:39.309Z,101867.47
2023-03-01T14:41:28.524Z,101859.66
2023-03-01T14:44:06.591Z,101865.44
2023-03-01T14:46:41.840Z,101865.09
2023-03-01T14:49:22.826Z,101859.22
2023-03-01T14:52:01.590Z,101860.88
2023-03-01T14:54:58.441Z,101855.00
2023-03-01T14:57:27.321Z,101854.38
2023-03-01T14:59:58.222Z,101852.44
2023-03-01T15:02:28.220Z,101846.88
2023-03-01T15:05:08.071Z,101843.56
2023-03-01T15:07:41.508Z,101839.63
2023-03-01T15:10:18.447Z,101832.75
2023-03-01T15:12:45.104Z,101827.69
2023-03-01T15:15:31.070Z,101831.13
2023-03-01T15:18:04.126Z,101827.19
2023-03-01T15:20:36.167Z,101828.03
2023-03-01T15:23:03.499Z,101828.50
2023-03-01T15:25:31.968Z,101828.50
2023-03-01T15:28:01.227Z,101816.91
2023-03-01T15:30:38.685Z,101819.47
2023-03-01T15:33:36.126Z,101813.69
2023-03-01T15:36:24.718Z,101821.44
2023-03-01T15:38:56.419Z,101809.50
2023-03-01T15:41:29.383Z,101806.50
2023-03-01T15:43:56.648Z,101814.34
2023-03-01T15:46:31.087Z,101815.28
2023-03-01T15:49:00.774Z,101805.59
2023-03-01T15:51:46.913Z,101812.91
2023-03-01T15:54:22.085Z,101792.94
2023-03-01T15:56:49.588Z,101801.28
2023-03-01T15:59:16.221Z,101804.91
2023-03-01T16:01:44.954Z,101792.47
2023-03-01T16:04:21.439Z,101799.13
2023-03-01T16:06:54.879Z,101805.81
2023-03-01T16:09:23.967Z,101808.09
2023-03-01T16:11:51.645Z,101797.59
2023-03-01T16:14:18.204Z,101797.91
2023-03-01T16:16:45.222Z,101798.25
2023-03-01T16:19:12.414Z,101797.72
2023-03-01T16:21:39.150Z,101801.94
2023-03-01T16:24:06.096Z,101800.59
2023-03-01T16:26:33.227Z,101795.66
2023-03-01T16:28:59.997Z,101799.91
2023-03-01T16:31:30.114Z,101801.31
2023-03-01T16:33:58.564Z,101803.91
2023-03-01T16:36:28.970Z,101803.69
2023-03-01T16:38:58.527Z,101795.94
2023-03-01T16:41:25.655Z,101802.44
2023-03-01T16:43:52.300Z,101799.47
2023-03-01T16:46:25.592Z,101787.94
2023-03-01T16:48:53.200Z,101786.63
2023-03-01T16:51:21.059Z,101792.56
2023-03-01T16:53:48.045Z,101804.31
2023-03-01T16:56:15.483Z,101791.94
2023-03-01T16:58:42.631Z,101795.63
2023-03-01T17:01:15.252Z,101801.28
2023-03-01T17:03:42.370Z,101804.16
2023-03-01T17:06:15.214Z,101806.50
2023-03-01T17:08:41.989Z,101809.38
2023-03-01T17:11:15.082Z,101812.88
2023-03-01T17:13:42.419Z,101815.41
2023-03-01T17:16:11.845Z,101815.81
2023-03-01T17:18:38.963Z,101815.59
2023-03-01T17:21:07.781Z,101806.53
2023-03-01T17:23:35.860Z,101815.13
2023-03-01T17:26:02.717Z,101818.75
2023-03-01T17:28:31.849Z,101817.91
2023-03-01T17:31:00.289Z,101810.72
2023-03-01T17:33:27.432Z,101815.13
2023-03-01T17:35:56.494Z,101817.09
2023-03-01T17:38:23.066Z,101815.47
2023-03-01T17:40:49.897Z,101827.69
2023-03-01T17:43:18.005Z,101825.22
2023-03-01T17:45:48.738Z,101829.91
2023-03-01T17:48:17.031Z,101828.28
2023-03-01T17:50:43.624Z,101831.06
2023-03-01T17:53:10.526Z,101830.00
2023-03-01T17:55:38.237Z,101834.72
2023-03-01T17:58:06.012Z,101830.31
2023-03-01T18:00:32.537Z,101835.03
2023-03-01T18:02:59.075Z,101830.91
2023-03-01T18:05:26.131Z,101833.16
2023-03-01T18:07:53.611Z,101836.25
2023-03-01T18:10:20.596Z,101833.25
2023-03-01T18:12:47.039Z,101834.66
2023-03-01T18:15:13.425Z,101834.97
2023-03-01T18:17:40.703Z,101823.66
2023-03-01T18:20:07.962Z,101833.72
2023-03-01T18:22:34.394Z,101835.13
2023-03-01T18:25:01.777Z,101833.25
2023-03-01T18:27:28.237Z,101833.03
2023-03-01T18:29:57.035Z,101832.81
2023-03-01T18:32:24.808Z,101838.66
2023-03-01T18:34:51.249Z,101826.22
2023-03-01T18:37:18.721Z,101814.91
2023-03-01T18:39:45.094Z,101818.56
2023-03-01T18:42:11.751Z,101827.47
2023-03-01T18:44:38.510Z,101824.47
2023-03-01T18:47:06.030Z,101823.09
2023-03-01T18:49:32.360Z,101816.22
2023-03-01T18:52:00.150Z,101814.84
2023-03-01T18:54:26.460Z,101813.50
2023-03-01T18:56:52.883Z,101808.56
2023-03-01T18:59:19.474Z,101811.91
2023-03-01T19:01:45.948Z,101804.22
2023-03-01T19:04:12.721Z,101808.09
2023-03-01T19:06:39.298Z,101803.16
2023-03-01T19:09:08.861Z,101808.16
2023-03-01T19:11:35.852Z,101804.03
2023-03-01T19:14:03.761Z,101808.22
2023-03-01T19:16:36.814Z,101803.28
2023-03-01T19:19:06.323Z,101799.16
2023-03-01T19:21:33.504Z,101797.50
2023-03-01T19:24:02.563Z,101795.31
2023-03-01T19:26:29.156Z,101795.63
2023-03-01T19:28:56.652Z,101792.34
2023-03-01T19:31:26.205Z,101798.97
2023-03-01T19:33:59.416Z,101799.59
2023-03-01T19:36:35.024Z,101798.53
2023-03-01T19:39:04.011Z,101799.09
2023-03-01T19:41:31.280Z,101801.06
2023-03-01T19:43:58.156Z,101805.25
2023-03-01T19:46:25.504Z,101796.69
2023-03-01T19:48:53.556Z,101800.88
2023-03-01T19:51:20.183Z,101804.75
2023-03-01T19:53:47.537Z,101807.84
2023-03-01T19:56:13.905Z,101800.66
2023-03-01T19:58:40.319Z,101794.56
2023-03-01T20:01:15.329Z,101796.81
2023-03-01T20:03:42.240Z,101790.47
2023-03-01T20:06:14.644Z,101799.88
2023-03-01T20:08:41.157Z,101796.56
2023-03-01T20:11:10.063Z,101793.28
2023-03-01T20:13:37.022Z,101785.00
2023-03-01T20:16:04.960Z,101803.53
2023-03-01T20:18:32.069Z,101789.47
2023-03-01T20:20:59.885Z,101806.88
2023-03-01T20:23:26.862Z,101801.94
2023-03-01T20:26:01.901Z,101813.59
2023-03-01T20:28:28.265Z,101805.28
2023-03-01T20:30:54.855Z,101810.28
2023-03-01T20:33:21.211Z,101807.50
2023-03-01T20:35:47.827Z,101807.00
2023-03-01T20:38:14.229Z,101806.44
2023-03-01T20:40:40.822Z,101813.91
2023-03-01T20:43:07.185Z,101814.75
2023-03-01T20:45:33.544Z,101808.69
2023-03-01T20:48:00.222Z,101810.94
2023-03-01T20:50:26.784Z,101813.97
2023-03-01T20:52:53.370Z,101814.28
2023-03-01T20:55:19.747Z,101810.97
2023-03-01T20:57:46.056Z,101810.75
2023-03-01T21:00:13.004Z,101806.03
2023-03-01T21:02:39.380Z,101803.25
2023-03-01T21:05:06.707Z,101807.16
2023-03-01T21:07:33.339Z,101802.44
2023-03-01T21:09:59.934Z,101807.16
2023-03-01T21:12:26.513Z,101798.03
2023-03-01T21:15:09.722Z,101792.25
2023-03-01T21:17:37.601Z,101791.94
2023-03-01T21:20:04.965Z,101791.44
2023-03-01T21:22:32.955Z,101795.59
2023-03-01T21:24:59.320Z,101793.94
2023-03-01T21:27:25.638Z,101794.25
2023-03-01T21:29:52.048Z,101797.00
2023-03-01T21:32:21.086Z,101804.75
2023-03-01T21:34:47.967Z,101804.75
2023-03-01T21:37:14.416Z,101799.53
2023-03-01T21:39:41.021Z,101800.66
2023-03-01T21:42:07.379Z,101797.06
2023-03-01T21:44:34.286Z,101794.56
2023-03-01T21:47:00.909Z,101790.16
2023-03-01T21:49:27.972Z,101794.88
2023-03-01T21:51:54.851Z,101792.09
2023-03-01T21:54:21.506Z,101794.31
2023-03-01T21:56:50.838Z,101796.25
2023-03-01T21:59:24.306Z,101795.72
2023-03-01T22:01:51.924Z,101792.44
2023-03-01T22:04:19.958Z,101787.19
2023-03-01T22:06:47.291Z,101789.44
2023-03-01T22:09:21.867Z,101783.66
2023-03-01T22:11:50.122Z,101790.00
2023-03-01T22:14:18.265Z,101794.69
2023-03-01T22:16:45.637Z,101788.34
2023-03-01T22:19:14.816Z,101794.19
2023-03-01T22:21:43.827Z,101788.91
2023-03-01T22:24:12.151Z,101784.50
2023-03-01T22:26:44.364Z,101782.59
2023-03-01T22:29:14.908Z,101782.09
2023-03-01T22:31:41.990Z,101777.69
2023-03-01T22:34:08.754Z,101772.72
2023-03-01T22:36:35.467Z,101776.03
2023-03-01T22:39:02.488Z,101780.75
2023-03-01T22:41:39.248Z,101780.50
2023-03-01T22:44:05.561Z,101775.81
2023-03-01T22:46:32.657Z,101777.72
2023-03-01T22:48:59.500Z,101768.63
2023-03-01T22:51:34.788Z,101775.00
2023-03-01T22:54:01.472Z,101770.31
2023-03-01T22:56:34.663Z,101772.03
2023-03-01T22:59:09.582Z,101773.09
2023-03-01T23:01:37.738Z,101771.47
2023-03-01T23:04:04.371Z,101762.91
2023-03-01T23:06:31.704Z,101762.09
2023-03-01T23:09:01.274Z,101758.81
2023-03-01T23:11:28.127Z,101767.09
2023-03-01T23:13:54.947Z,101759.09
2023-03-01T23:16:26.169Z,101759.38
2023-03-01T23:18:58.169Z,101761.59
2023-03-01T23:21:24.982Z,101769.06
2023-03-01T23:23:51.716Z,101767.44
2023-03-01T23:26:18.549Z,101768.50
2023-03-01T23:28:45.261Z,101769.59
2023-03-01T23:31:14.127Z,101775.44
2023-03-01T23:33:43.350Z,101773.78
2023-03-01T23:36:21.569Z,101769.66
2023-03-01T23:38:49.919Z,101774.34
2023-03-01T23:41:19.579Z,101772.41
2023-03-01T23:43:47.372Z,101765.81
2023-03-01T23:46:17.927Z,101762.50
2023-03-01T23:48:45.624Z,101765.28
2023-03-01T23:51:13.557Z,101763.91
2023-03-01T23:53:43.132Z,101760.59
2023-03-01T23:56:13.397Z,101762.81
2023-03-01T23:58:40.042Z,101748.47
